createdAt,value
2019-04-06T00:03:23.091Z,67.60
2019-04-06T00:05:52.677Z,74.43
2019-04-06T00:08:21.902Z,64.50
2019-04-06T00:10:51.282Z,73.47
2019-04-06T00:13:22.360Z,64.90
2019-04-06T00:15:51.645Z,59.53
2019-04-06T00:18:21.017Z,64.73
2019-04-06T00:20:50.127Z,66.17
2019-04-06T00:23:19.417Z,73.50
2019-04-06T00:25:48.715Z,65.83
2019-04-06T00:28:18.100Z,57.77
2019-04-06T00:31:03.717Z,61.63
2019-04-06T00:33:32.823Z,62.70
2019-04-06T00:36:01.937Z,58.97
2019-04-06T00:38:30.985Z,68.57
2019-04-06T00:41:00.649Z,57.97
2019-04-06T00:43:30.041Z,64.27
2019-04-06T00:45:59.390Z,71.10
2019-04-06T00:48:28.590Z,67.20
2019-04-06T00:50:57.680Z,62.80
2019-04-06T00:53:26.955Z,71.27
2019-04-06T00:55:56.423Z,67.47
2019-04-06T00:58:25.566Z,69.90
2019-04-06T01:00:55.038Z,55.20
2019-04-06T01:03:24.085Z,74.07
2019-04-06T01:05:53.025Z,69.30
2019-04-06T01:08:22.053Z,60.77
2019-04-06T01:10:51.181Z,56.83
2019-04-06T01:13:20.797Z,58.10
2019-04-06T01:15:49.804Z,62.30
2019-04-06T01:18:19.150Z,64.10
2019-04-06T01:20:50.809Z,82.30
2019-04-06T01:23:20.822Z,61.20
2019-04-06T01:25:50.138Z,69.67
2019-04-06T01:28:19.589Z,57.93
2019-04-06T01:30:49.412Z,69.80
2019-04-06T01:33:18.810Z,75.57
2019-04-06T01:35:48.650Z,61.43
2019-04-06T01:38:18.101Z,65.17
2019-04-06T01:40:47.461Z,67.97
2019-04-06T01:43:16.826Z,74.17
2019-04-06T01:45:45.818Z,75.13
2019-04-06T01:48:15.141Z,59.27
2019-04-06T01:50:44.254Z,65.07
2019-04-06T01:53:13.666Z,61.73
2019-04-06T01:55:43.657Z,60.97
2019-04-06T01:58:13.054Z,62.20
2019-04-06T02:00:49.224Z,68.43
2019-04-06T02:03:18.534Z,64.17
2019-04-06T02:05:47.943Z,56.90
2019-04-06T02:08:17.281Z,73.00
2019-04-06T02:10:46.271Z,71.07
2019-04-06T02:13:15.497Z,59.63
2019-04-06T02:15:44.847Z,66.73
2019-04-06T02:18:14.129Z,61.97
2019-04-06T02:20:43.445Z,68.30
2019-04-06T02:23:12.675Z,62.20
2019-04-06T02:25:41.653Z,64.90
2019-04-06T02:28:10.871Z,62.10
2019-04-06T02:30:44.291Z,66.00
2019-04-06T02:33:31.794Z,62.70
2019-04-06T02:36:19.783Z,59.23
2019-04-06T02:38:54.964Z,62.53
2019-04-06T02:41:55.268Z,67.50
2019-04-06T02:44:24.715Z,65.70
2019-04-06T02:46:54.029Z,64.83
2019-04-06T02:49:23.350Z,79.93
2019-04-06T02:51:53.155Z,62.60
2019-04-06T02:54:22.109Z,73.23
2019-04-06T02:56:51.192Z,74.57
2019-04-06T02:59:20.572Z,61.03
2019-04-06T03:01:50.196Z,63.80
2019-04-06T03:04:19.472Z,59.80
2019-04-06T03:06:48.381Z,65.90
2019-04-06T03:09:17.683Z,61.90
2019-04-06T03:11:46.977Z,72.27
2019-04-06T03:14:16.099Z,74.43
2019-04-06T03:16:45.637Z,73.63
2019-04-06T03:19:14.833Z,61.97
2019-04-06T03:21:44.029Z,67.57
2019-04-06T03:24:13.259Z,64.13
2019-04-06T03:26:42.149Z,70.20
2019-04-06T03:29:11.152Z,69.30
2019-04-06T03:31:40.506Z,80.83
2019-04-06T03:34:09.786Z,61.03
2019-04-06T03:36:39.194Z,75.33
2019-04-06T03:39:08.395Z,66.60
2019-04-06T03:41:37.362Z,66.10
2019-04-06T03:44:06.303Z,76.23
2019-04-06T03:46:35.268Z,72.83
2019-04-06T03:49:04.776Z,70.30
2019-04-06T03:51:34.109Z,68.20
2019-04-06T03:54:03.288Z,71.83
2019-04-06T03:56:32.427Z,69.10
2019-04-06T03:59:01.861Z,65.97
2019-04-06T04:01:31.125Z,68.50
2019-04-06T04:04:00.276Z,66.17
2019-04-06T04:06:29.207Z,70.90
2019-04-06T04:08:58.626Z,69.07
2019-04-06T04:11:28.423Z,68.60
2019-04-06T04:13:57.693Z,67.27
2019-04-06T04:16:26.874Z,64.13
2019-04-06T04:18:55.858Z,71.07
2019-04-06T04:21:25.168Z,70.23
2019-04-06T04:23:54.598Z,72.77
2019-04-06T04:26:23.507Z,63.80
2019-04-06T04:28:52.562Z,68.60
2019-04-06T04:31:21.869Z,71.70
2019-04-06T04:33:51.126Z,70.40
2019-04-06T04:36:20.209Z,65.67
2019-04-06T04:38:49.256Z,77.43
2019-04-06T04:41:18.545Z,70.00
2019-04-06T04:43:48.144Z,64.20
2019-04-06T04:46:17.143Z,68.60
2019-04-06T04:48:47.035Z,62.53
2019-04-06T04:51:16.660Z,63.40
2019-04-06T04:53:46.292Z,69.77
2019-04-06T04:56:15.572Z,60.17
2019-04-06T04:58:44.836Z,62.40
2019-04-06T05:01:14.198Z,65.87
2019-04-06T05:03:43.425Z,69.93
2019-04-06T05:06:12.605Z,63.97
2019-04-06T05:08:41.784Z,71.03
2019-04-06T05:11:11.020Z,67.60
2019-04-06T05:13:40.269Z,70.23
2019-04-06T05:16:10.822Z,70.03
2019-04-06T05:18:41.385Z,65.60
2019-04-06T05:21:11.016Z,71.37
2019-04-06T05:23:40.291Z,91.73
2019-04-06T05:26:09.571Z,73.13
2019-04-06T05:28:38.825Z,70.37
2019-04-06T05:31:07.840Z,79.00
2019-04-06T05:33:37.437Z,70.67
2019-04-06T05:36:06.647Z,71.80
2019-04-06T05:38:36.009Z,73.90
2019-04-06T05:41:05.804Z,78.23
2019-04-06T05:43:35.348Z,63.53
2019-04-06T05:46:05.001Z,74.13
2019-04-06T05:48:33.990Z,68.90
2019-04-06T05:51:03.007Z,66.23
2019-04-06T05:53:32.253Z,67.57
2019-04-06T05:56:01.854Z,68.60
2019-04-06T05:58:31.139Z,72.50
2019-04-06T06:01:00.352Z,71.70
2019-04-06T06:03:29.548Z,70.17
2019-04-06T06:05:59.580Z,78.53
2019-04-06T06:08:30.536Z,73.33
2019-04-06T06:10:59.834Z,65.20
2019-04-06T06:13:29.131Z,83.37
2019-04-06T06:16:06.012Z,69.43
2019-04-06T06:18:35.713Z,78.57
2019-04-06T06:21:05.500Z,71.90
2019-04-06T06:23:34.438Z,71.83
2019-04-06T06:26:03.665Z,79.30
2019-04-06T06:28:33.089Z,71.73
2019-04-06T06:31:02.660Z,70.87
2019-04-06T06:33:32.108Z,79.27
2019-04-06T06:36:01.335Z,69.77
2019-04-06T06:38:30.900Z,72.27
2019-04-06T06:40:59.925Z,61.27
2019-04-06T06:43:29.185Z,62.17
2019-04-06T06:45:59.366Z,61.77
2019-04-06T06:48:28.606Z,72.30
2019-04-06T06:50:58.028Z,58.10
2019-04-06T06:53:28.002Z,58.80
2019-04-06T06:55:57.954Z,73.63
2019-04-06T06:58:26.930Z,53.70
2019-04-06T07:00:56.176Z,63.77
2019-04-06T07:03:25.830Z,92.00
2019-04-06T07:05:55.342Z,71.83
2019-04-06T07:08:24.686Z,70.13
2019-04-06T07:10:53.872Z,61.83
2019-04-06T07:13:22.834Z,65.73
2019-04-06T07:15:52.088Z,59.40
2019-04-06T07:18:21.230Z,77.03
2019-04-06T07:20:51.310Z,66.13
2019-04-06T07:23:20.859Z,65.40
2019-04-06T07:25:57.709Z,62.03
2019-04-06T07:28:20.730Z,75.23
2019-04-06T07:30:50.242Z,75.37
2019-04-06T07:33:19.593Z,68.80
2019-04-06T07:35:48.904Z,71.53
2019-04-06T07:38:18.409Z,68.50
2019-04-06T07:40:47.788Z,58.90
2019-04-06T07:43:17.004Z,66.90
2019-04-06T07:45:46.230Z,62.50
2019-04-06T07:48:15.573Z,67.27
2019-04-06T07:50:45.167Z,70.13
2019-04-06T07:53:14.547Z,71.30
2019-04-06T07:55:43.915Z,66.60
2019-04-06T07:58:13.758Z,68.93
2019-04-06T08:00:43.096Z,61.80
2019-04-06T08:03:12.698Z,63.63
2019-04-06T08:05:42.042Z,65.23
2019-04-06T08:08:11.390Z,62.43
2019-04-06T08:10:40.558Z,82.23
2019-04-06T08:13:10.116Z,68.30
2019-04-06T08:15:39.218Z,60.13
2019-04-06T08:18:08.571Z,67.67
2019-04-06T08:20:38.092Z,69.73
2019-04-06T08:23:08.273Z,62.90
2019-04-06T08:25:37.895Z,69.90
2019-04-06T08:28:07.776Z,66.70
2019-04-06T08:30:45.409Z,65.00
2019-04-06T08:33:08.129Z,67.20
2019-04-06T08:35:37.381Z,62.07
2019-04-06T08:38:06.742Z,77.23
2019-04-06T08:40:36.237Z,62.70
2019-04-06T08:43:05.525Z,70.50
2019-04-06T08:45:34.522Z,69.93
2019-04-06T08:48:03.594Z,61.70
2019-04-06T08:50:32.968Z,68.17
2019-04-06T09:54:47.412Z,44.27
2019-04-06T09:57:21.101Z,52.40
2019-04-06T10:00:08.530Z,47.00
2019-04-06T10:02:52.430Z,58.83
2019-04-06T10:05:38.860Z,41.20
2019-04-06T10:08:27.277Z,46.57
2019-04-06T10:11:13.804Z,42.90
2019-04-06T10:14:11.223Z,40.13
2019-04-06T10:16:49.303Z,45.10
2019-04-06T10:19:28.939Z,40.87
2019-04-06T10:22:29.520Z,30.97
2019-04-06T10:25:10.970Z,39.50
2019-04-06T10:28:11.553Z,44.43
2019-04-06T10:30:59.820Z,34.03
2019-04-06T10:33:54.001Z,44.80
2019-04-06T10:36:45.080Z,34.17
2019-04-06T10:39:35.271Z,46.13
2019-04-06T10:42:11.415Z,30.03
2019-04-06T10:44:58.386Z,38.33
2019-04-06T10:47:35.172Z,20.40
2019-04-06T10:50:14.618Z,34.07
2019-04-06T10:53:02.660Z,35.87
2019-04-06T10:55:49.412Z,43.60
2019-04-06T10:58:40.476Z,35.20
2019-04-06T11:01:27.440Z,33.73
2019-04-06T11:04:10.899Z,32.50
2019-04-06T11:06:57.685Z,43.53
2019-04-06T11:09:52.336Z,37.03
2019-04-06T11:12:41.374Z,39.20
2019-04-06T11:15:27.809Z,33.70
2019-04-06T11:18:12.268Z,35.63
2019-04-06T11:21:00.486Z,33.63
2019-04-06T11:23:48.721Z,38.43
2019-04-06T11:26:26.597Z,38.20
2019-04-06T11:29:23.957Z,33.57
2019-04-06T11:32:23.820Z,33.73
2019-04-06T11:35:05.801Z,36.17
2019-04-06T11:38:03.091Z,38.10
2019-04-06T11:40:51.352Z,33.83
2019-04-06T11:43:35.180Z,39.90
2019-04-06T11:46:35.626Z,42.73
2019-04-06T11:49:23.858Z,40.70
2019-04-06T11:52:00.954Z,35.27
2019-04-06T11:54:49.588Z,39.57
2019-04-06T11:57:24.862Z,34.63
2019-04-06T12:00:26.057Z,37.20
2019-04-06T12:02:59.804Z,38.63
2019-04-06T12:05:37.500Z,30.30
2019-04-06T12:08:28.554Z,38.10
2019-04-06T12:11:19.812Z,40.10
2019-04-06T12:14:02.385Z,32.87
2019-04-06T12:16:43.969Z,34.13
2019-04-06T12:19:27.900Z,38.20
2019-04-06T12:22:25.858Z,31.43
2019-04-06T12:25:20.513Z,29.23
2019-04-06T12:28:08.776Z,39.73
2019-04-06T12:31:03.161Z,30.53
2019-04-06T12:33:49.495Z,31.33
2019-04-06T12:36:40.099Z,31.13
2019-04-06T12:39:19.099Z,31.77
2019-04-06T12:42:19.619Z,32.67
2019-04-06T12:45:16.528Z,34.87
2019-04-06T12:48:23.020Z,34.07
2019-04-06T12:51:26.017Z,30.10
2019-04-06T12:54:25.228Z,34.13
2019-04-06T12:57:22.550Z,30.00
2019-04-06T13:00:09.804Z,26.20
2019-04-06T13:02:56.256Z,24.80
2019-04-06T13:05:53.398Z,23.03
2019-04-06T13:08:42.016Z,21.63
2019-04-06T13:11:32.536Z,24.93
2019-04-06T13:14:11.216Z,23.30
2019-04-06T13:17:08.267Z,20.30
2019-04-06T13:19:49.718Z,20.37
2019-04-06T13:22:44.573Z,21.40
2019-04-06T13:25:28.724Z,20.40
2019-04-06T13:28:07.212Z,18.93
2019-04-06T13:31:01.817Z,17.00
2019-04-06T13:34:03.368Z,16.47
2019-04-06T13:36:51.532Z,12.90
2019-04-06T13:39:28.839Z,20.80
2019-04-06T13:42:20.195Z,18.97
2019-04-06T13:45:15.350Z,17.37
2019-04-06T13:47:51.153Z,13.07
2019-04-06T13:50:39.453Z,14.50
2019-04-06T13:53:30.763Z,14.23
2019-04-06T13:56:22.552Z,16.97
2019-04-06T13:59:09.164Z,22.50
2019-04-06T14:01:58.450Z,16.50
2019-04-06T14:04:35.111Z,13.60
2019-04-06T14:07:26.129Z,9.97
2019-04-06T14:10:01.660Z,13.53
2019-04-06T14:12:50.176Z,16.13
2019-04-06T14:15:37.361Z,14.20
2019-04-06T14:18:28.980Z,13.07
2019-04-06T14:21:23.365Z,15.70
2019-04-06T14:24:17.626Z,12.30
2019-04-06T14:27:12.217Z,15.80
2019-04-06T14:30:18.596Z,19.30
2019-04-06T14:33:12.592Z,11.50
2019-04-06T14:36:00.119Z,12.03
2019-04-06T14:38:56.882Z,14.30
2019-04-06T14:41:54.216Z,12.47
2019-04-06T14:44:31.853Z,13.00
2019-04-06T14:47:23.136Z,10.20
2019-04-06T14:50:03.328Z,12.33
2019-04-06T14:52:54.494Z,14.40
2019-04-06T14:55:45.632Z,15.90
2019-04-06T14:58:26.909Z,12.50
2019-04-06T15:01:21.679Z,11.00
2019-04-06T15:04:08.324Z,12.43
2019-04-06T15:07:09.665Z,14.90
2019-04-06T15:09:47.891Z,12.43
2019-04-06T15:12:45.315Z,11.63
2019-04-06T15:15:51.868Z,11.83
2019-04-06T15:18:45.800Z,16.13
2019-04-06T15:21:42.780Z,12.67
2019-04-06T15:24:33.618Z,13.60
2019-04-06T15:27:11.401Z,9.87
2019-04-06T15:29:50.047Z,41.37
2019-04-06T15:32:44.082Z,13.35
2019-04-06T15:35:31.100Z,11.07
2019-04-06T15:38:37.467Z,16.00
2019-04-06T15:41:35.008Z,9.97
2019-04-06T15:44:26.561Z,15.50
2019-04-06T15:47:13.598Z,13.90
2019-04-06T15:50:10.837Z,13.33
2019-04-06T15:52:45.769Z,12.17
2019-04-06T15:55:52.334Z,14.57
2019-04-06T15:58:29.733Z,10.87
2019-04-06T16:01:26.709Z,10.33
2019-04-06T16:04:13.661Z,10.90
2019-04-06T16:07:08.275Z,10.40
2019-04-06T16:09:59.366Z,9.60
2019-04-06T16:12:50.694Z,12.63
2019-04-06T16:15:31.353Z,8.97
2019-04-06T16:18:19.887Z,11.43
2019-04-06T16:21:15.754Z,10.70
2019-04-06T16:24:18.292Z,11.63
2019-04-06T16:27:00.156Z,11.20
2019-04-06T16:29:42.353Z,12.37
2019-04-06T16:32:35.111Z,17.37
2019-04-06T16:35:35.268Z,10.03
2019-04-06T16:38:24.084Z,9.57
2019-04-06T16:41:11.399Z,15.43
2019-04-06T16:44:01.566Z,14.23
2019-04-06T16:46:48.205Z,9.33
2019-04-06T16:49:34.803Z,9.87
2019-04-06T16:52:21.886Z,8.90
2019-04-06T16:55:21.541Z,13.90
2019-04-06T16:58:19.995Z,13.20
2019-04-06T17:01:21.683Z,17.93
2019-04-06T17:04:00.346Z,12.10
2019-04-06T17:06:52.132Z,16.53
2019-04-06T17:09:35.583Z,11.03
2019-04-06T17:12:23.673Z,14.10
2019-04-06T17:15:08.346Z,13.77
2019-04-06T17:17:58.798Z,15.37
2019-04-06T17:21:07.110Z,11.03
2019-04-06T17:23:58.941Z,14.33
2019-04-06T17:26:53.796Z,12.37
2019-04-06T17:29:49.805Z,10.40
2019-04-06T17:32:57.055Z,12.23
2019-04-06T17:35:47.432Z,11.00
2019-04-06T17:38:31.821Z,21.87
2019-04-06T17:41:28.284Z,19.70
2019-04-06T17:44:17.265Z,15.67
2019-04-06T17:47:07.777Z,13.00
2019-04-06T17:50:05.774Z,18.10
2019-04-06T17:52:50.240Z,12.90
2019-04-06T17:55:47.896Z,13.63
2019-04-06T17:58:29.437Z,13.50
2019-04-06T18:01:26.450Z,17.90
2019-04-06T18:04:14.361Z,19.10
2019-04-06T18:07:07.458Z,17.30
2019-04-06T18:09:45.984Z,12.27
2019-04-06T18:12:49.636Z,11.43
2019-04-06T18:15:20.221Z,13.87
2019-04-06T18:17:49.783Z,17.40
2019-04-06T18:20:20.009Z,15.27
2019-04-06T18:22:51.687Z,14.70
2019-04-06T18:25:21.941Z,15.77
2019-04-06T18:27:51.828Z,16.80
2019-04-06T18:30:21.301Z,12.90
2019-04-06T18:33:00.772Z,14.97
2019-04-06T18:35:25.607Z,18.13
2019-04-06T18:38:15.773Z,11.37
2019-04-06T18:40:45.209Z,15.97
2019-04-06T18:43:15.233Z,15.70
2019-04-06T18:45:45.091Z,16.63
2019-04-06T18:48:15.535Z,14.43
2019-04-06T18:50:44.940Z,16.07
2019-04-06T18:53:14.558Z,11.33
2019-04-06T18:55:43.948Z,12.83
2019-04-06T18:58:14.410Z,12.00
2019-04-06T19:00:43.866Z,17.50
2019-04-06T19:03:15.396Z,12.07
2019-04-06T19:05:45.099Z,16.30
2019-04-06T19:08:14.661Z,13.40
2019-04-06T19:10:44.352Z,12.33
2019-04-06T19:13:13.606Z,10.83
2019-04-06T19:15:44.228Z,16.57
2019-04-06T19:18:14.476Z,12.77
2019-04-06T19:20:44.375Z,21.73
2019-04-06T19:23:14.761Z,26.40
2019-04-06T19:25:45.916Z,11.40
2019-04-06T19:28:16.612Z,12.50
2019-04-06T19:30:46.293Z,12.30
2019-04-06T19:33:23.330Z,16.40
2019-04-06T19:35:47.244Z,14.23
2019-04-06T19:38:17.032Z,12.37
2019-04-06T19:40:47.303Z,11.17
2019-04-06T19:43:18.651Z,12.13
2019-04-06T19:45:51.234Z,15.13
2019-04-06T19:48:20.679Z,10.70
2019-04-06T19:50:50.207Z,13.93
2019-04-06T19:53:20.173Z,15.40
2019-04-06T19:55:50.218Z,10.50
2019-04-06T19:58:20.460Z,7.03
2019-04-06T20:00:50.676Z,10.03
2019-04-06T20:03:20.865Z,12.60
2019-04-06T20:05:50.546Z,10.63
2019-04-06T20:08:20.594Z,9.20
2019-04-06T20:10:50.776Z,8.67
2019-04-06T20:13:20.598Z,9.70
2019-04-06T20:15:51.150Z,23.40
2019-04-06T20:18:21.782Z,13.83
2019-04-06T20:20:51.738Z,11.53
2019-04-06T20:23:21.097Z,10.57
2019-04-06T20:26:11.470Z,13.60
2019-04-06T20:28:41.123Z,10.07
2019-04-06T20:31:41.801Z,13.23
2019-04-06T20:34:13.398Z,10.20
2019-04-06T20:36:43.057Z,11.03
2019-04-06T20:39:15.680Z,10.47
2019-04-06T20:41:46.464Z,9.73
2019-04-06T20:44:16.682Z,8.17
2019-04-06T20:46:46.349Z,9.17
2019-04-06T20:49:15.868Z,15.27
2019-04-06T20:51:45.861Z,9.17
2019-04-06T20:54:15.409Z,13.93
